Key Field
KMEI : now visible

Airfield :











YOU CAN JOIN US ON...

 
LOGIN :

Register | Disclaimer

   EN    FR    IT 

 









Legend :    VFR   Marginal VFR   IFR   Intensive IFR   Very Intensive IFR
Visi :
Ceiling :
>= 8 km
>= 3000ft
5 to 8 km
1000 to 3000 ft
1500m to 5 km
500 to 1000 ft
800 to 1500m
200 to 500 ft
< 800m
< 200 ft
Symbols :   Thunderstorms  Fog  Heavy snow  Heavy precipitations  Wind > 20 kt






- Airport Elevation : 297 ft
- IATA code : MEI


KMEI - Key Field

CURRENT METAR :
  • 080811Z AUTO 34003KT 5SM R01/3500VP6000FT BR CLR 08/07 A3016 RMK AO2 I1000 T00830067

EXPIRED METARs :
  • 080758Z AUTO 34003KT 2 1/2SM R01/4000VP6000FT BR CLR 08/07 A3017 RMK AO2 SLP214 I1000 T00780067
  • 080658Z AUTO 35004KT 10SM CLR 09/08 A3017 RMK AO2 SLP215 I1000 T00940078
  • 080558Z AUTO 33003KT 10SM BKN039 10/08 A3019 RMK AO2 SLP221 I1000 I6/// T01000083 10122 20100 402000100 58008

TAF KMEI
Valid from the 08 at 06:00 until the 09 at 06:00 UTC


080532Z 0806/0906 36003KT P6SM OVC040
FM080700 02003KT P6SM BKN015 OVC025



MET'MAP, your aeronautical weather chart ! - Copyright ORBIFLY December 2007 - Disclaimer

ORBIFLY MET'MAP TEAM :

Programming & Development : Alexandra Zaïnal
Concept & original design : Baudouin d'Aumeries
Assistance for programming : Marc-Olivier Méhu
Technical & hardware support : Manuel Goepfert

Contact : metmap@orbifly.com




SOURCES & CREDITS :

   NOAA       Earth
Advisory